CheckWX is a tool to help pilots better visualize weather data.  It is not intended as a substitute for an official pre-flight weather briefing.

08:47:45 UTC

4M9 METAR
Corning Municipal Airport
Corning, Arkansas, USA
Current

13 mins ago

K4M9 120835Z AUTO 15006KT 10SM BKN016 01/M01 A3046 RMK AO2 PWINO
Observed
Dec-12 @ 08:35 UTC
Wind
  • 150° at 6 KTS
Visibility
10 SM
Flight Rules
MVFR
Cloud Levels
  • Broken at 1,600' AGL
Temperature
C / 34°F
Dewpoint
-1°C / 30°F
Humidity
87%
Altimeter
30.46" Hg
Pressure
1031.52 hPa
Previous

33 mins ago

K4M9 120815Z AUTO 15006KT 10SM BKN017 01/M01 A3047 RMK AO2 PWINO
Observed
Dec-12 @ 08:15 UTC
Wind
  • 150° at 6 KTS
Visibility
10 SM
Flight Rules
MVFR
Cloud Levels
  • Broken at 1,700' AGL
Temperature
C / 34°F
Dewpoint
-1°C / 30°F
Humidity
87%
Altimeter
30.47" Hg
Pressure
1031.82 hPa
Previous

53 mins ago

K4M9 120755Z AUTO 15005KT 10SM BKN016 BKN020 01/M01 A3047 RMK AO2 PWINO
Observed
Dec-12 @ 07:55 UTC
Wind
  • 150° at 5 KTS
Visibility
10 SM
Flight Rules
MVFR
Cloud Levels
  • Broken at 1,600' AGL
  • Broken at 2,000' AGL
Temperature
C / 34°F
Dewpoint
-1°C / 30°F
Humidity
87%
Altimeter
30.47" Hg
Pressure
1031.82 hPa